North Platte, NE

11:55 AM CDT on July 02, 2015 (GMT -0500)
K0KDC North Platte | | Change Station
CLOSE
Current Station
Personal Weather Station
Location: North Platte, NE
Elevation: 2808 ft
Nearby Weather Stations

Elev 2808 ft 41.14 °N, 100.77 °W | Updated 46 seconds ago

Clear
Clear
78.8 °F
Feels Like 80 °F
N
9.0
Wind Variable Wind from NW
Gusts 17.0 mph

Today
High -- | Low -- °F
--% Chance of Precip.
Yesterday
High -- | Low -- °F
Precip. -- in
6:14 AM 9:19 PM
Full, 100% visible
Pressure 29.94 in
Visibility 10.0 miles
Clouds Few 5000 ft
Heat Index 80 °F
Dew Point 61 °F
Humidity 54%
Rainfall 0.05 in
Snow Depth Not available.
UV 10 out of 12
Pollen 3.50 out of 12
Air Quality Not available.
Flu Activity Not available.
METAR KLBF 021653Z AUTO 33011KT 10SM FEW050 28/15 A3002 RMK AO2 SLP137 T02780150

More Conditions Fewer Conditions

Pressure 29.94 in
Visibility 10.0 miles
Clouds Few 5000 ft
Heat Index 80 °F
Dew Point 61 °F
Humidity 54%
Rainfall 0.05 in
Snow Depth Not available.
UV 10 out of 12
Pollen 3.50 out of 12
Air Quality Not available.
Flu Activity Not available.
METAR KLBF 021653Z AUTO 33011KT 10SM FEW050 28/15 A3002 RMK AO2 SLP137 T02780150

More Conditions Fewer Conditions

10-Day Weather Forecast

×

Almanac

Astronomy

Jul. 02, 2015 Rise Set
Actual Time
Civil Twilight
Nautical Twilight
Astronomical Twilight
Moon
Length of Visible Light
Length of Day
Tomorrow will be .
, % of the Moon is Illuminated

Today's Extremes

State Highs State Lows

Community

WunderPhotos

Upload Photos

1,834,498 photos uploaded!

WunderBlogs® & News

Nearby

Air Quality

  Air Quality AQ Index Pollutant
Not available.

Snow Depth

Station Depth Elevation

Earthquake Activity

City Distance Mag. Time & Date
Minimum magnitude displayed is 2.5.

Coastal Water Temperatures

Place Temperature

Stations

Nearby Weather Stations

Station Location Temp. Windchill Dew Point Humidity Wind Precip. Elev Updated Type